This is the latest recevied weather packets stored in our database for station/object DL1MMS-10. If no packets are shown the sender has not sent any weather packets the latest 10 day(s).
| Time | Temp. | Humidity | Pressure | Rain* | Wind** | Luminosity | Snow |
|---|---|---|---|---|---|---|---|
| 1778069356 | 18.89° C | 50% | 1006.6 hPa | 0 mm | - | - | - |
| 1778069056 | 18.89° C | 49% | 1006.7 hPa | 0 mm | - | - | - |
| 1778068755 | 18.89° C | 49% | 1006.7 hPa | 0 mm | - | - | - |
| 1778068455 | 19.44° C | 49% | 1006.5 hPa | 0 mm | - | - | - |
| 1778068155 | 19.44° C | 49% | 1006.6 hPa | 0 mm | - | - | - |
| 1778067854 | 19.44° C | 49% | 1006.6 hPa | 0 mm | - | - | - |
| 1778067554 | 19.44° C | 49% | 1006.6 hPa | 0 mm | - | - | - |
| 1778067254 | 19.44° C | 50% | 1006.5 hPa | 0 mm | - | - | - |
| 1778066954 | 18.89° C | 50% | 1006.6 hPa | 0 mm | - | - | - |
| 1778066653 | 18.89° C | 49% | 1006.7 hPa | 0 mm | - | - | - |
| 1778066353 | 18.89° C | 47% | 1006.8 hPa | 0 mm | - | - | - |
| 1778066053 | 19.44° C | 46% | 1006.9 hPa | 0 mm | - | - | - |
| 1778065752 | 20.56° C | 45% | 1006.8 hPa | 0 mm | - | - | - |
| 1778065452 | 21.67° C | 44% | 1006.8 hPa | 0 mm | - | - | - |
| 1778065152 | 22.22° C | 43% | 1006.9 hPa | 0 mm | - | - | - |
| 1778064852 | 23.89° C | 41% | 1007 hPa | 0 mm | - | - | - |
| 1778064551 | 24.44° C | 40% | 1006.9 hPa | 0 mm | - | - | - |
| 1778064251 | 24.44° C | 41% | 1007 hPa | 0 mm | - | - | - |
| 1778063951 | 24.44° C | 40% | 1007 hPa | 0 mm | - | - | - |
| 1778063650 | 26.11° C | 36% | 1007.1 hPa | 0 mm | - | - | - |
| 1778063350 | 28.33° C | 37% | 1007.4 hPa | 0 mm | - | - | - |
| 1778063050 | 27.78° C | 38% | 1007.3 hPa | 0 mm | - | - | - |
| 1778062750 | 26.67° C | 40% | 1007.5 hPa | 0 mm | - | - | - |
| 1778062449 | 24.44° C | 45% | 1007.4 hPa | 0 mm | - | - | - |
| 1778062149 | 21.11° C | 51% | 1007.6 hPa | 0 mm | - | - | - |
* Rain latest hour (hover to see other rain measurements)
** Current wind speed in m/s (hover to see current wind gust speed)